Facebook Twitter

Wetterstation Kufstein

Messwerte
  Temperatur Wetter Niederschlag Luftdruck Wind
Mo, 06:00 Uhr 14° - 0.7 mm 1020 hPa 0 km/h
Mo, 05:00 Uhr 15° - 3 mm 1020.2 hPa 4 km/h SW
Mo, 04:00 Uhr 15° - 2 mm 1020.2 hPa 4 km/h W
Mo, 03:00 Uhr 15° - 0.8 mm 1020.2 hPa 4 km/h SO
Mo, 02:00 Uhr 15° - 11 mm 1019.8 hPa 7 km/h NO
Mo, 01:00 Uhr 15° - 6 mm 1019.1 hPa 11 km/h NO
Mo, 00:00 Uhr 17° - 0.1 mm 1018.6 hPa 11 km/h NO
So, 23:00 Uhr 19° - 0 mm 1016.7 hPa 14 km/h NO
So, 22:00 Uhr 19° - 0 mm 1016 hPa 11 km/h NO
So, 21:00 Uhr 19° - 0 mm 1015.6 hPa 7 km/h NO
So, 20:00 Uhr 20° - 0 mm 1015.3 hPa 4 km/h NO
So, 19:00 Uhr 21° - 0 mm 1015.2 hPa 7 km/h NO
So, 18:00 Uhr 22° - 0 mm 1015.1 hPa 7 km/h O
So, 17:00 Uhr 23° - 0 mm 1014.6 hPa 11 km/h NO
So, 16:00 Uhr 23° - 0 mm 1015 hPa 4 km/h NO
So, 15:00 Uhr 24° - 0 mm 1014.8 hPa 4 km/h N
So, 14:00 Uhr 23° - 0 mm 1015.6 hPa 7 km/h W
So, 13:00 Uhr 21° - 0 mm 1017.1 hPa 11 km/h W
So, 12:00 Uhr 21° - 0 mm 1017.9 hPa 4 km/h SW
So, 11:00 Uhr 18° - 0 mm 1018.6 hPa 4 km/h SW

Alle Zeitangaben MESZ